Terminal Aerodrome Forecast
Issued by NWS

Home | Current Version | Previous Version | Text Only | Print | Product List | Glossary On
Versions: 1 2 3 4 5 6 7 8 9 10 11 12 13 14 15 16 17 18 19 20 21 22 23 24 25 26 27 28 29
000
FTUS46 KMTR 020304 AAA
TAFSFO
TAF AMD
KSFO 020304Z 0203/0306 26017KT P6SM FEW015 SCT250
     FM020500 27010KT P6SM FEW012 SCT250
     FM020800 27006KT P6SM SCT012 BKN250
      TEMPO 0212/0216 OVC011
     FM021800 27015G22KT P6SM SCT014 BKN250
     FM022100 27020G27KT P6SM FEW015 SCT250
     FM030400 29015G22KT P6SM SCT015=

USA.gov is the U.S. government's official web portal to all federal, state and local government web resources and services.